createdAt,value
2022-08-08T00:01:10.932Z,102684.03
2022-08-08T00:03:48.021Z,102680.00
2022-08-08T00:06:35.324Z,102682.06
2022-08-08T00:09:07.755Z,102673.38
2022-08-08T00:11:47.001Z,102684.13
2022-08-08T00:14:48.503Z,102687.84
2022-08-08T00:17:58.670Z,102688.78
2022-08-08T00:20:17.834Z,102685.00
2022-08-08T00:22:48.262Z,102684.94
2022-08-08T00:25:19.141Z,102680.47
2022-08-08T00:27:47.442Z,102684.72
2022-08-08T00:30:17.633Z,102682.28
2022-08-08T00:32:47.737Z,102675.25
2022-08-08T00:35:39.548Z,102678.69
2022-08-08T00:38:32.136Z,102687.97
2022-08-08T00:42:08.347Z,102688.41
2022-08-08T00:44:56.899Z,102686.16
2022-08-08T00:48:06.647Z,102692.69
2022-08-08T00:51:21.037Z,102701.50
2022-08-08T00:54:36.727Z,102697.28
2022-08-08T00:57:40.778Z,102700.13
2022-08-08T01:00:16.131Z,102703.28
2022-08-08T01:04:01.797Z,102696.78
2022-08-08T01:07:05.741Z,102694.97
2022-08-08T01:10:39.089Z,102685.53
2022-08-08T01:13:43.754Z,102697.09
2022-08-08T01:16:53.667Z,102688.50
2022-08-08T01:20:08.050Z,102689.78
2022-08-08T01:23:55.123Z,102682.84
2022-08-08T01:29:17.948Z,102678.50
2022-08-08T01:32:46.877Z,102692.63
2022-08-08T01:35:40.930Z,102690.91
2022-08-08T01:38:47.946Z,102688.50
2022-08-08T01:41:19.579Z,102688.63
2022-08-08T01:43:50.814Z,102680.16
2022-08-08T01:46:40.034Z,102684.94
2022-08-08T01:49:14.248Z,102688.31
2022-08-08T01:52:59.140Z,102680.41
2022-08-08T01:55:26.744Z,102675.63
2022-08-08T01:58:11.805Z,102686.47
2022-08-08T02:00:48.432Z,102674.75
2022-08-08T02:03:56.826Z,102677.44
2022-08-08T02:06:32.746Z,102675.47
2022-08-08T02:09:17.985Z,102675.91
2022-08-08T02:12:00.041Z,102686.88
2022-08-08T02:14:55.673Z,102688.28
2022-08-08T02:17:36.045Z,102687.72
2022-08-08T02:20:59.852Z,102684.06
2022-08-08T02:23:16.564Z,102680.97
2022-08-08T02:25:50.893Z,102673.66
2022-08-08T02:28:34.929Z,102677.31
2022-08-08T02:31:43.228Z,102677.69
2022-08-08T02:34:08.386Z,102675.56
2022-08-08T02:36:41.395Z,102682.22
2022-08-08T02:39:42.032Z,102682.47
2022-08-08T02:42:42.564Z,102680.34
2022-08-08T02:45:24.860Z,102689.66
2022-08-08T02:48:32.185Z,102678.94
2022-08-08T02:51:55.468Z,102675.53
2022-08-08T02:54:50.203Z,102686.50
2022-08-08T02:58:02.689Z,102680.91
2022-08-08T03:00:50.887Z,102674.94
2022-08-08T03:05:04.716Z,102676.00
2022-08-08T03:07:07.205Z,102673.47
2022-08-08T03:10:01.888Z,102682.34
2022-08-08T03:13:07.546Z,102677.41
2022-08-08T03:16:34.484Z,102680.09
2022-08-08T03:19:29.833Z,102677.41
2022-08-08T03:21:59.699Z,102679.66
2022-08-08T03:24:31.369Z,102680.63
2022-08-08T03:27:05.110Z,102682.72
2022-08-08T03:29:55.411Z,102678.50
2022-08-08T03:32:47.256Z,102685.34
2022-08-08T03:35:22.829Z,102683.06
2022-08-08T03:37:59.357Z,102686.59
2022-08-08T03:40:40.458Z,102683.47
2022-08-08T03:43:15.628Z,102686.53
2022-08-08T03:46:04.750Z,102685.34
2022-08-08T03:49:30.317Z,102678.34
2022-08-08T03:51:50.530Z,102680.84
2022-08-08T03:54:41.154Z,102688.44
2022-08-08T03:58:09.513Z,102676.56
2022-08-08T04:00:07.291Z,102679.06
2022-08-08T04:02:51.605Z,102681.28
2022-08-08T04:05:27.357Z,102682.25
2022-08-08T04:08:00.561Z,102678.72
2022-08-08T04:10:31.908Z,102686.03
2022-08-08T04:13:18.011Z,102678.16
2022-08-08T04:15:54.606Z,102684.31
2022-08-08T04:18:41.900Z,102678.16
2022-08-08T04:21:13.232Z,102687.16
2022-08-08T04:24:05.216Z,102675.84
2022-08-08T04:26:35.531Z,102682.16
2022-08-08T04:29:12.325Z,102680.63
2022-08-08T04:31:59.473Z,102687.66
2022-08-08T04:34:32.165Z,102684.28
2022-08-08T04:37:19.246Z,102688.44
2022-08-08T04:40:05.962Z,102695.81
2022-08-08T04:42:55.916Z,102689.16
2022-08-08T04:45:30.090Z,102696.22
2022-08-08T04:48:00.956Z,102696.22
2022-08-08T04:50:38.289Z,102693.66
2022-08-08T04:53:13.730Z,102696.47
2022-08-08T04:55:57.230Z,102686.88
2022-08-08T04:58:29.417Z,102698.69
2022-08-08T05:01:00.119Z,102698.91
2022-08-08T05:04:11.123Z,102701.34
2022-08-08T05:06:29.176Z,102690.13
2022-08-08T05:09:02.177Z,102695.38
2022-08-08T05:11:39.002Z,102698.16
2022-08-08T05:14:12.405Z,102701.81
2022-08-08T05:16:50.743Z,102708.63
2022-08-08T05:20:11.230Z,102720.63
2022-08-08T05:22:13.804Z,102717.09
2022-08-08T05:24:49.301Z,102714.19
2022-08-08T05:27:20.683Z,102713.63
2022-08-08T05:29:50.298Z,102716.41
2022-08-08T05:32:26.967Z,102706.81
2022-08-08T05:35:04.588Z,102712.56
2022-08-08T05:37:53.304Z,102709.03
2022-08-08T05:40:31.565Z,102718.63
2022-08-08T05:43:38.474Z,102714.94
2022-08-08T05:46:02.909Z,102729.03
2022-08-08T05:48:37.726Z,102727.09
2022-08-08T05:51:14.488Z,102730.50
2022-08-08T05:54:24.790Z,102726.00
2022-08-08T05:56:38.691Z,102744.34
2022-08-08T05:59:15.070Z,102732.91
2022-08-08T06:02:03.166Z,102735.81
2022-08-08T06:04:32.699Z,102727.72
2022-08-08T06:07:04.986Z,102737.38
2022-08-08T06:09:58.422Z,102734.16
2022-08-08T06:12:30.967Z,102732.66
2022-08-08T06:15:03.708Z,102747.63
2022-08-08T06:18:18.431Z,102744.28
2022-08-08T06:20:27.589Z,102746.06
2022-08-08T06:22:57.877Z,102738.34
2022-08-08T06:26:38.822Z,102733.19
2022-08-08T06:28:29.046Z,102739.69
2022-08-08T06:31:00.016Z,102734.41
2022-08-08T06:33:37.282Z,102735.56
2022-08-08T06:36:29.270Z,102744.38
2022-08-08T06:38:57.446Z,102746.94
2022-08-08T06:41:29.719Z,102749.53
2022-08-08T06:44:03.651Z,102741.50
2022-08-08T06:46:36.078Z,102745.06
2022-08-08T06:49:05.785Z,102748.44
2022-08-08T06:51:46.952Z,102754.81
2022-08-08T06:54:22.731Z,102760.78
2022-08-08T06:56:51.711Z,102759.50
2022-08-08T06:59:21.764Z,102760.06
2022-08-08T07:02:21.505Z,102753.88
2022-08-08T07:04:51.924Z,102763.44
2022-08-08T07:07:32.761Z,102755.00
2022-08-08T07:10:08.185Z,102765.00
2022-08-08T07:12:48.069Z,102765.69
2022-08-08T07:16:01.228Z,102765.13
2022-08-08T07:18:35.156Z,102766.50
2022-08-08T07:21:18.692Z,102762.91
2022-08-08T07:24:00.907Z,102757.31
2022-08-08T07:26:35.192Z,102758.53
2022-08-08T07:29:11.399Z,102755.34
2022-08-08T07:31:48.859Z,102761.91
2022-08-08T07:34:20.495Z,102757.88
2022-08-08T07:37:11.983Z,102765.16
2022-08-08T07:39:45.413Z,102774.31
2022-08-08T07:42:18.884Z,102774.78
2022-08-08T07:44:48.223Z,102775.22
2022-08-08T07:47:29.268Z,102773.94
2022-08-08T07:50:10.010Z,102769.06
2022-08-08T07:52:43.910Z,102780.09
2022-08-08T07:55:20.298Z,102788.56
2022-08-08T07:57:58.173Z,102778.16
2022-08-08T08:00:30.454Z,102777.25
2022-08-08T08:03:14.173Z,102775.28
2022-08-08T08:05:51.742Z,102789.38
2022-08-08T08:08:28.252Z,102786.28
2022-08-08T08:10:59.474Z,102791.38
2022-08-08T08:13:43.027Z,102786.38
2022-08-08T08:16:25.336Z,102789.09
2022-08-08T08:18:59.811Z,102791.84
2022-08-08T08:21:52.853Z,102797.97
2022-08-08T08:24:35.201Z,102789.25
2022-08-08T08:27:08.437Z,102791.31
2022-08-08T08:29:42.449Z,102790.00
2022-08-08T08:32:24.124Z,102780.78
2022-08-08T08:35:03.506Z,102772.88
2022-08-08T08:37:32.524Z,102783.00
2022-08-08T08:40:03.101Z,102779.63
2022-08-08T08:42:39.133Z,102788.75
2022-08-08T08:45:23.531Z,102774.91
2022-08-08T08:48:02.641Z,102783.69
2022-08-08T08:50:36.863Z,102783.00
2022-08-08T08:53:54.695Z,102778.59
2022-08-08T08:56:09.777Z,102782.94
2022-08-08T08:58:49.978Z,102789.00
2022-08-08T09:01:24.832Z,102783.91
2022-08-08T09:03:54.730Z,102788.25
2022-08-08T09:06:33.550Z,102784.22
2022-08-08T09:09:26.260Z,102781.13
2022-08-08T09:12:07.778Z,102777.03
2022-08-08T09:14:42.565Z,102779.38
2022-08-08T09:17:18.370Z,102769.53
2022-08-08T09:21:58.257Z,102773.88
2022-08-08T09:22:40.130Z,102783.78
2022-08-08T09:25:11.305Z,102779.31
2022-08-08T09:27:57.465Z,102780.78
2022-08-08T09:30:31.346Z,102776.66
2022-08-08T09:33:55.362Z,102774.41
2022-08-08T09:35:52.454Z,102772.63
2022-08-08T09:38:32.738Z,102775.06
2022-08-08T09:41:05.410Z,102767.44
2022-08-08T09:43:41.276Z,102768.94
2022-08-08T09:46:30.611Z,102759.69
2022-08-08T09:49:17.977Z,102763.91
2022-08-08T09:52:06.232Z,102756.25
2022-08-08T09:54:38.293Z,102752.47
2022-08-08T09:57:07.452Z,102750.97
2022-08-08T09:59:50.151Z,102755.00
2022-08-08T10:02:44.809Z,102761.44
2022-08-08T10:05:25.107Z,102749.00
2022-08-08T10:07:59.998Z,102747.28
2022-08-08T10:10:31.429Z,102759.97
2022-08-08T10:13:05.982Z,102751.41
2022-08-08T10:15:42.275Z,102759.97
2022-08-08T10:18:31.832Z,102747.69
2022-08-08T10:21:22.668Z,102747.56
2022-08-08T10:23:57.998Z,102749.94
2022-08-08T10:26:52.026Z,102746.50
2022-08-08T10:29:28.135Z,102746.16
2022-08-08T10:32:17.129Z,102745.06
2022-08-08T10:35:01.335Z,102745.28
2022-08-08T10:37:31.499Z,102741.38
2022-08-08T10:40:16.293Z,102745.47
2022-08-08T10:42:45.591Z,102745.56
2022-08-08T10:45:16.092Z,102741.03
2022-08-08T10:47:48.537Z,102743.88
2022-08-08T10:50:32.537Z,102733.69
2022-08-08T10:53:07.674Z,102736.47
2022-08-08T10:55:48.149Z,102726.91
2022-08-08T10:58:18.516Z,102719.97
2022-08-08T11:00:52.547Z,102730.25
2022-08-08T11:03:52.315Z,102723.19
2022-08-08T11:06:22.096Z,102732.06
2022-08-08T11:08:53.526Z,102722.41
2022-08-08T11:12:00.223Z,102717.41
2022-08-08T11:14:12.361Z,102717.41
2022-08-08T11:16:46.721Z,102710.66
2022-08-08T11:19:17.272Z,102719.25
2022-08-08T11:21:56.308Z,102719.41
2022-08-08T11:24:26.467Z,102721.53
2022-08-08T11:26:57.201Z,102712.00
2022-08-08T11:29:41.501Z,102719.59
2022-08-08T11:32:17.641Z,102718.53
2022-08-08T11:38:35.183Z,102711.41
2022-08-08T11:40:27.337Z,102716.09
2022-08-08T11:43:00.890Z,102719.38
2022-08-08T11:45:29.705Z,102715.53
2022-08-08T11:48:09.700Z,102716.88
2022-08-08T11:50:39.699Z,102710.50
2022-08-08T11:53:09.809Z,102710.91
2022-08-08T11:55:52.240Z,102704.69
2022-08-08T11:58:21.830Z,102702.16
2022-08-08T12:00:53.278Z,102701.66
2022-08-08T12:03:23.959Z,102702.59
2022-08-08T12:05:55.912Z,102690.44
2022-08-08T12:08:39.113Z,102694.09
2022-08-08T12:11:12.195Z,102696.91
2022-08-08T12:14:03.590Z,102672.97
2022-08-08T12:16:43.436Z,102685.09
2022-08-08T12:19:15.745Z,102686.56
2022-08-08T12:21:59.174Z,102693.53
2022-08-08T12:24:33.534Z,102699.66
2022-08-08T12:27:01.755Z,102693.50
2022-08-08T12:29:42.382Z,102690.31
2022-08-08T12:32:20.337Z,102685.78
2022-08-08T12:35:13.299Z,102684.38
2022-08-08T12:38:01.309Z,102686.75
2022-08-08T12:40:54.408Z,102681.00
2022-08-08T12:43:31.915Z,102674.09
2022-08-08T12:46:03.445Z,102677.28
2022-08-08T12:48:37.161Z,102690.75
2022-08-08T12:51:11.245Z,102684.00
2022-08-08T12:53:48.037Z,102693.19
2022-08-08T12:56:23.848Z,102687.09
2022-08-08T12:58:54.379Z,102684.47
2022-08-08T13:01:36.846Z,102688.41
2022-08-08T13:04:18.578Z,102682.88
2022-08-08T13:06:56.781Z,102689.97
2022-08-08T13:10:00.750Z,102676.56
2022-08-08T13:12:28.963Z,102677.47
2022-08-08T13:14:58.822Z,102681.66
2022-08-08T13:17:54.178Z,102687.91
2022-08-08T13:20:22.077Z,102687.50
2022-08-08T13:22:55.948Z,102693.31
2022-08-08T13:25:36.886Z,102688.84
2022-08-08T13:28:12.136Z,102696.41
2022-08-08T13:30:45.473Z,102695.72
2022-08-08T13:33:13.781Z,102690.41
2022-08-08T13:35:50.710Z,102690.66
2022-08-08T13:38:19.310Z,102688.81
2022-08-08T13:40:48.198Z,102690.63
2022-08-08T13:43:21.326Z,102693.94
2022-08-08T13:45:54.390Z,102676.78
2022-08-08T13:48:25.238Z,102684.59
2022-08-08T13:51:25.170Z,102692.94
2022-08-08T13:53:53.259Z,102691.44
2022-08-08T13:56:32.319Z,102686.03
2022-08-08T13:59:02.093Z,102694.72
2022-08-08T14:01:42.164Z,102695.13
2022-08-08T14:04:25.171Z,102688.50
2022-08-08T14:06:59.656Z,102688.50
2022-08-08T14:10:04.266Z,102690.50
2022-08-08T14:12:23.053Z,102683.13
2022-08-08T14:14:53.179Z,102685.53
2022-08-08T14:17:58.087Z,102680.88
2022-08-08T14:20:15.492Z,102668.50
2022-08-08T14:23:21.024Z,102665.53
2022-08-08T14:26:10.556Z,102672.63
2022-08-08T14:28:40.319Z,102672.38
2022-08-08T14:31:11.498Z,102656.78
2022-08-08T14:33:52.875Z,102668.09
2022-08-08T14:36:34.484Z,102667.47
2022-08-08T14:39:11.420Z,102656.44
2022-08-08T14:41:53.246Z,102661.56
2022-08-08T14:44:35.138Z,102655.81
2022-08-08T14:47:16.764Z,102655.31
2022-08-08T14:50:06.292Z,102651.19
2022-08-08T14:53:05.153Z,102652.34
2022-08-08T14:55:41.893Z,102658.22
2022-08-08T14:58:16.609Z,102672.88
2022-08-08T15:00:49.705Z,102667.09
2022-08-08T15:03:20.098Z,102664.28
2022-08-08T15:05:54.640Z,102672.78
2022-08-08T15:08:34.675Z,102668.38
2022-08-08T15:11:09.372Z,102667.53
2022-08-08T15:14:01.110Z,102666.44
2022-08-08T15:16:34.752Z,102672.47
2022-08-08T15:19:05.880Z,102675.75
2022-08-08T15:21:37.956Z,102671.31
2022-08-08T15:24:16.230Z,102667.41
2022-08-08T15:26:52.884Z,102665.72
2022-08-08T15:29:22.502Z,102675.66
2022-08-08T15:32:03.973Z,102674.91
2022-08-08T15:34:43.070Z,102675.81
2022-08-08T15:37:15.909Z,102683.56
2022-08-08T15:39:45.619Z,102679.66
2022-08-08T15:42:33.176Z,102664.44
2022-08-08T15:45:05.206Z,102660.78
2022-08-08T15:47:33.417Z,102652.69
2022-08-08T15:50:16.759Z,102651.38
2022-08-08T15:52:51.237Z,102649.75
2022-08-08T15:55:20.384Z,102648.06
2022-08-08T15:57:49.203Z,102639.78
2022-08-08T16:00:26.710Z,102642.59
2022-08-08T16:02:57.833Z,102656.41
2022-08-08T16:05:35.399Z,102649.44
2022-08-08T16:08:19.953Z,102656.41
2022-08-08T16:13:14.923Z,102650.94
2022-08-08T16:13:43.861Z,102657.63
2022-08-08T16:16:18.075Z,102652.03
2022-08-08T16:18:57.279Z,102644.53
2022-08-08T16:21:29.516Z,102645.38
2022-08-08T16:23:58.491Z,102639.31
2022-08-08T16:26:34.815Z,102652.09
2022-08-08T16:29:08.131Z,102656.31
2022-08-08T16:31:49.204Z,102656.59
2022-08-08T16:34:19.061Z,102653.84
2022-08-08T16:36:50.899Z,102662.91
2022-08-08T16:39:27.829Z,102654.09
2022-08-08T16:42:01.146Z,102652.44
2022-08-08T16:44:33.928Z,102651.06
2022-08-08T16:47:22.004Z,102656.56
2022-08-08T16:50:13.590Z,102656.53
2022-08-08T16:55:00.529Z,102651.50
2022-08-08T16:55:52.692Z,102655.88
2022-08-08T16:58:26.408Z,102657.47
2022-08-08T17:00:55.355Z,102658.75
2022-08-08T17:04:00.543Z,102652.94
2022-08-08T17:06:35.418Z,102656.78
2022-08-08T17:09:04.081Z,102650.44
2022-08-08T17:11:39.393Z,102655.72
2022-08-08T17:14:19.378Z,102663.41
2022-08-08T17:16:57.362Z,102673.81
2022-08-08T17:19:27.465Z,102671.34
2022-08-08T17:21:57.862Z,102667.59
2022-08-08T17:24:31.675Z,102675.22
2022-08-08T17:27:00.423Z,102673.09
2022-08-08T17:29:33.787Z,102666.84
2022-08-08T17:32:02.586Z,102677.59
2022-08-08T17:34:36.902Z,102670.78
2022-08-08T17:37:19.510Z,102678.91
2022-08-08T17:40:10.923Z,102675.28
2022-08-08T17:42:37.636Z,102672.25
2022-08-08T17:45:21.114Z,102673.97
2022-08-08T17:47:52.299Z,102672.09
2022-08-08T17:50:22.658Z,102668.09
2022-08-08T17:52:50.928Z,102668.19
2022-08-08T17:56:05.737Z,102667.91
2022-08-08T17:58:09.339Z,102672.53
2022-08-08T18:00:39.190Z,102671.00
2022-08-08T18:03:13.664Z,102671.47
2022-08-08T18:05:49.836Z,102686.75
2022-08-08T18:08:37.719Z,102678.28
2022-08-08T18:11:15.135Z,102686.94
2022-08-08T18:13:45.798Z,102690.94
2022-08-08T18:16:17.310Z,102696.31
2022-08-08T18:18:52.863Z,102697.59
2022-08-08T18:21:35.614Z,102694.25
2022-08-08T18:24:17.373Z,102696.44
2022-08-08T18:26:53.646Z,102701.38
2022-08-08T18:29:27.199Z,102701.31
2022-08-08T18:31:58.995Z,102698.94
2022-08-08T18:34:28.050Z,102704.69
2022-08-08T18:36:56.763Z,102704.56
2022-08-08T18:39:28.310Z,102691.72
2022-08-08T18:42:03.797Z,102703.56
2022-08-08T18:44:36.037Z,102705.22
2022-08-08T18:47:05.033Z,102705.00
2022-08-08T18:49:57.451Z,102695.94
2022-08-08T18:52:23.401Z,102712.66
2022-08-08T18:55:00.732Z,102710.91
2022-08-08T18:57:41.150Z,102715.66
2022-08-08T19:00:17.050Z,102712.00
2022-08-08T19:02:55.841Z,102710.16
2022-08-08T19:05:32.255Z,102710.00
2022-08-08T19:08:24.821Z,102712.75
2022-08-08T19:10:57.729Z,102716.00
2022-08-08T19:13:53.780Z,102718.81
2022-08-08T19:16:19.489Z,102717.38
2022-08-08T19:18:54.506Z,102723.94
2022-08-08T19:21:30.685Z,102717.94
2022-08-08T19:23:59.422Z,102726.19
2022-08-08T19:26:30.854Z,102727.78
2022-08-08T19:29:00.738Z,102725.75
2022-08-08T19:31:31.328Z,102733.69
2022-08-08T19:34:04.654Z,102730.78
2022-08-08T19:36:52.772Z,102732.31
2022-08-08T19:39:22.976Z,102735.19
2022-08-08T19:41:51.310Z,102738.34
2022-08-08T19:44:42.360Z,102747.91
2022-08-08T19:47:08.895Z,102744.63
2022-08-08T19:49:38.061Z,102738.25
2022-08-08T19:52:07.954Z,102750.47
2022-08-08T19:54:38.802Z,102757.25
2022-08-08T19:57:07.889Z,102759.28
2022-08-08T19:59:39.275Z,102763.41
2022-08-08T20:02:07.630Z,102762.19
2022-08-08T20:04:38.858Z,102771.34
2022-08-08T20:08:31.235Z,102775.19
2022-08-08T20:09:58.525Z,102776.50
2022-08-08T20:12:32.634Z,102784.63
2022-08-08T20:15:16.729Z,102788.56
2022-08-08T20:17:46.655Z,102785.34
2022-08-08T20:20:19.177Z,102789.59
2022-08-08T20:22:53.901Z,102788.47
2022-08-08T20:25:22.623Z,102789.47
2022-08-08T20:27:54.004Z,102798.28
2022-08-08T20:30:52.444Z,102797.06
2022-08-08T20:35:57.150Z,102802.00
2022-08-08T20:38:32.792Z,102797.78
2022-08-08T20:41:12.162Z,102790.50
2022-08-08T20:43:49.663Z,102803.34
2022-08-08T20:46:20.976Z,102811.34
2022-08-08T20:48:55.573Z,102807.47
2022-08-08T20:51:27.380Z,102799.06
2022-08-08T20:54:03.356Z,102806.03
2022-08-08T20:57:04.490Z,102801.47
2022-08-08T20:59:27.135Z,102799.63
2022-08-08T21:02:06.358Z,102804.03
2022-08-08T21:04:36.909Z,102803.22
2022-08-08T21:07:08.333Z,102809.31
2022-08-08T21:09:48.523Z,102802.53
2022-08-08T21:12:33.351Z,102808.31
2022-08-08T21:15:07.162Z,102803.56
2022-08-08T21:17:38.995Z,102808.97
2022-08-08T21:20:08.958Z,102801.22
2022-08-08T21:22:37.955Z,102797.16
2022-08-08T21:25:13.458Z,102804.63
2022-08-08T21:28:09.376Z,102801.41
2022-08-08T21:30:31.180Z,102814.06
2022-08-08T21:33:00.749Z,102806.31
2022-08-08T21:36:16.992Z,102807.19
2022-08-08T21:38:27.142Z,102807.66
2022-08-08T21:40:57.082Z,102817.78
2022-08-08T21:43:31.317Z,102808.31
2022-08-08T21:48:05.839Z,102807.66
2022-08-08T21:48:54.001Z,102812.72
2022-08-08T21:54:23.065Z,102805.97
2022-08-08T21:54:36.676Z,102815.75
2022-08-08T21:57:00.335Z,102806.81
2022-08-08T21:59:44.179Z,102810.66
2022-08-08T22:02:19.626Z,102806.97
2022-08-08T22:04:56.133Z,102807.13
2022-08-08T22:07:39.845Z,102804.59
2022-08-08T22:10:09.923Z,102811.16
2022-08-08T22:12:47.055Z,102820.97
2022-08-08T22:15:15.192Z,102809.47
2022-08-08T22:17:45.531Z,102807.44
2022-08-08T22:20:23.590Z,102805.91
2022-08-08T22:22:52.679Z,102817.38
2022-08-08T22:25:25.481Z,102811.97
2022-08-08T22:28:02.517Z,102817.66
2022-08-08T22:30:33.492Z,102813.78
2022-08-08T22:33:01.970Z,102814.59
2022-08-08T22:36:04.639Z,102819.63
2022-08-08T22:38:19.969Z,102817.06
2022-08-08T22:40:49.327Z,102820.25
2022-08-08T22:43:17.727Z,102820.25
2022-08-08T22:45:46.692Z,102809.78
2022-08-08T22:48:21.600Z,102818.19
2022-08-08T22:50:52.035Z,102822.91
2022-08-08T22:54:28.204Z,102829.47
2022-08-08T22:56:08.617Z,102834.03
2022-08-08T22:58:38.142Z,102833.69
2022-08-08T23:01:16.498Z,102837.41
2022-08-08T23:03:56.209Z,102834.88
2022-08-08T23:06:26.643Z,102832.81
2022-08-08T23:08:59.057Z,102835.53
2022-08-08T23:12:28.791Z,102835.84
2022-08-08T23:14:18.865Z,102843.56
2022-08-08T23:16:54.430Z,102848.41
2022-08-08T23:19:26.239Z,102841.66
2022-08-08T23:21:55.740Z,102848.06
2022-08-08T23:24:23.845Z,102847.06
2022-08-08T23:26:55.508Z,102846.69
2022-08-08T23:29:25.142Z,102847.63
2022-08-08T23:31:53.492Z,102845.56
2022-08-08T23:34:21.825Z,102845.84
2022-08-08T23:36:52.333Z,102854.94
2022-08-08T23:39:24.946Z,102852.88
2022-08-08T23:42:00.760Z,102846.13
2022-08-08T23:44:30.171Z,102847.44
2022-08-08T23:49:07.769Z,102846.38
2022-08-08T23:50:03.281Z,102850.53
2022-08-08T23:52:34.302Z,102849.00
2022-08-08T23:55:14.081Z,102842.94
2022-08-08T23:57:53.211Z,102841.91
